CYHU/YHU METAR and TAF weather

Enter ICAO airport designator
Station Type Date Time Source
CYHU METAR 2019/06/17 06:00 UTC NOAA

CYHU 170600Z AUTO 36006KT 9SM BKN060 13/09 A2991 RMK SLP131


Station Type Date Time Source
CYHU Decoded METAR 2019/06/17 06:00 UTC NOAA

Saint Hubert Airport , Canada (CYHU) 45-31N 073-25W
Jun 17, 2019 - 02:00 AM EDT / 2019.06.17 0600 UTC
Wind: from the N (360 degrees) at 7 MPH (6 KT):0
Visibility: 9 mile(s):0
Sky conditions: mostly cloudy
Temperature: 55 F (13 C)
Dew Point: 48 F (9 C)
Relative Humidity: 76%
Pressure (altimeter): 29.91 in. Hg (1012 hPa)
ob: CYHU 170600Z AUTO 36006KT 9SM BKN060 13/09 A2991 RMK SLP131
cycle: 6

Station Type Date Time Source
CYHU TAF 2019/06/17 06:42 UTC NOAA

TAF TAF CYHU 170538Z 1706/1806 VRB03KT P6SM FEW060 FEW250
FM171600 25012KT P6SM SCT050
FM172200 26010KT P6SM SKC
BECMG 1801/1803 26005KT
RMK FCST BASED ON AUTO OBS. NXT FCST BY 171200Z

Example: see airport list